Time;durP1;ratioP1;P1;durP2;ratioP2;P2;SDS_P1;SDS_P2;PMS_P1;PMS_P2;Temp;Humidity;BMP_temperature;BMP_pressure;BME280_temperature;BME280_humidity;BME280_pressure;Samples;Min_cycle;Max_cycle;Signal;HPM_P1;HPM_P2
2023/07/26 00:00:18;;;;;;;4.55;2.35;;;24.30;84.30;;;;;;10981190;32;20006;-69
2023/07/26 00:06:19;;;;;;;5.32;1.60;;;24.30;84.30;;;;;;10980776;32;20061;-69
2023/07/26 00:12:21;;;;;;;4.40;2.22;;;24.40;84.20;;;;;;10976587;32;20049;-69
2023/07/26 00:18:23;;;;;;;5.20;2.08;;;24.30;84.40;;;;;;10980572;32;20018;-69
2023/07/26 00:24:25;;;;;;;3.62;1.85;;;24.20;84.30;;;;;;10979283;32;20060;-71
2023/07/26 00:30:27;;;;;;;4.20;2.55;;;23.90;84.00;;;;;;10979411;32;20054;-70
2023/07/26 00:36:29;;;;;;;6.87;2.30;;;23.80;84.00;;;;;;10979705;32;20022;-70
2023/07/26 00:42:31;;;;;;;4.78;2.25;;;23.70;83.80;;;;;;10979790;32;20057;-70
2023/07/26 00:48:37;;;;;;;2.83;1.48;;;23.40;83.60;;;;;;10979668;32;20014;-70
2023/07/26 00:54:39;;;;;;;3.35;1.87;;;23.40;83.90;;;;;;10978674;32;20023;-69
2023/07/26 01:00:44;;;;;;;2.30;1.58;;;23.40;83.80;;;;;;10979004;32;20041;-70
2023/07/26 01:07:11;;;;;;;3.03;1.55;;;23.30;83.90;;;;;;10979369;32;20023;-71
2023/07/26 01:13:19;;;;;;;4.35;1.52;;;23.40;83.80;;;;;;10979206;32;20037;-71
2023/07/26 01:19:21;;;;;;;5.12;1.85;;;23.50;83.90;;;;;;10979161;32;20073;-71
2023/07/26 01:25:23;;;;;;;4.68;2.12;;;23.50;83.80;;;;;;10978948;32;20045;-71
2023/07/26 01:31:26;;;;;;;2.17;1.52;;;23.30;84.20;;;;;;10978778;32;20041;-71
2023/07/26 01:37:28;;;;;;;2.87;1.65;;;23.40;84.40;;;;;;10977895;32;20053;-71
2023/07/26 01:43:32;;;;;;;1.90;1.20;;;23.60;84.70;;;;;;10978709;32;20049;-71
2023/07/26 01:49:34;;;;;;;10.43;1.10;;;23.50;85.00;;;;;;10980291;32;20026;-71
2023/07/26 01:55:36;;;;;;;1.17;0.82;;;23.60;84.90;;;;;;10984646;32;20046;-71
2023/07/26 02:01:38;;;;;;;1.35;0.93;;;23.60;85.10;;;;;;10985338;32;20018;-71
2023/07/26 02:07:40;;;;;;;3.33;2.05;;;23.60;84.90;;;;;;10985226;32;20015;-71
2023/07/26 02:13:42;;;;;;;3.00;1.65;;;23.60;84.60;;;;;;10983554;32;20022;-71
2023/07/26 02:19:44;;;;;;;2.95;1.30;;;23.60;84.40;;;;;;10984770;32;20018;-71
2023/07/26 02:25:46;;;;;;;4.75;1.55;;;23.70;84.50;;;;;;10984393;32;20022;-71
2023/07/26 02:31:48;;;;;;;5.07;1.62;;;23.70;84.30;;;;;;10984210;32;20057;-71
2023/07/26 02:37:50;;;;;;;3.78;1.33;;;23.50;84.30;;;;;;10984209;32;20055;-71
2023/07/26 02:43:52;;;;;;;3.05;1.90;;;23.40;84.80;;;;;;10983867;32;20022;-71
2023/07/26 02:49:54;;;;;;;3.37;1.83;;;23.40;84.80;;;;;;10983815;32;20007;-71
2023/07/26 02:55:56;;;;;;;2.05;1.40;;;23.40;84.60;;;;;;10983543;32;20018;-71
2023/07/26 03:01:58;;;;;;;2.58;1.30;;;23.30;84.60;;;;;;10983104;32;20026;-71
2023/07/26 03:08:01;;;;;;;3.58;1.90;;;23.30;84.60;;;;;;10983078;32;20085;-73
2023/07/26 03:14:03;;;;;;;2.35;1.15;;;23.30;85.00;;;;;;10982864;32;20434;-72
2023/07/26 03:20:05;;;;;;;2.42;1.25;;;23.30;84.90;;;;;;10981895;32;20027;-71
2023/07/26 03:26:08;;;;;;;2.53;1.58;;;23.10;84.90;;;;;;10982278;32;20023;-72
2023/07/26 03:32:10;;;;;;;2.15;1.55;;;22.90;85.10;;;;;;10979653;32;20023;-71
2023/07/26 03:38:12;;;;;;;3.17;2.25;;;22.80;85.10;;;;;;10981967;32;20404;-71
2023/07/26 03:44:14;;;;;;;3.17;1.75;;;22.70;85.10;;;;;;10981646;32;20050;-72
2023/07/26 03:50:18;;;;;;;3.45;1.75;;;22.60;85.00;;;;;;10981437;32;20037;-71
2023/07/26 03:56:20;;;;;;;4.37;1.85;;;22.70;84.90;;;;;;10981429;32;20415;-71
2023/07/26 04:02:22;;;;;;;5.35;2.17;;;22.70;84.70;;;;;;10981068;32;20053;-73
2023/07/26 04:08:24;;;;;;;4.90;2.60;;;22.60;84.60;;;;;;10979907;32;20038;-72
2023/07/26 04:14:26;;;;;;;1.83;1.30;;;22.60;84.70;;;;;;10980211;32;20018;-73
2023/07/26 04:20:28;;;;;;;2.95;1.52;;;22.60;84.60;;;;;;10980461;32;20026;-73
2023/07/26 04:26:30;;;;;;;4.62;1.70;;;22.70;84.40;;;;;;10966722;32;20046;-73
2023/07/26 04:32:32;;;;;;;4.78;2.65;;;22.80;84.30;;;;;;10980124;32;20031;-72
2023/07/26 04:38:37;;;;;;;3.40;2.60;;;22.80;84.10;;;;;;10980038;32;20309;-73
2023/07/26 04:44:39;;;;;;;2.85;1.98;;;22.70;84.10;;;;;;10976231;32;20366;-73
2023/07/26 04:50:42;;;;;;;3.90;2.25;;;22.70;84.20;;;;;;10979627;32;20050;-73
2023/07/26 04:56:44;;;;;;;2.92;1.90;;;22.80;84.10;;;;;;10979589;32;20388;-73
2023/07/26 05:02:46;;;;;;;2.70;1.80;;;22.80;84.10;;;;;;10979462;32;20042;-73
2023/07/26 05:08:48;;;;;;;4.85;1.85;;;22.80;84.10;;;;;;10980610;32;20022;-72
2023/07/26 05:14:50;;;;;;;3.60;1.80;;;22.90;84.20;;;;;;10954807;27;20083;-73
2023/07/26 05:20:52;;;;;;;8.18;2.83;;;23.00;84.00;;;;;;10940668;32;20011;-71
2023/07/26 05:26:54;;;;;;;1.92;1.37;;;23.00;84.10;;;;;;10946273;32;20041;-71
2023/07/26 05:32:56;;;;;;;3.72;2.05;;;22.90;84.20;;;;;;10949909;32;20019;-71
2023/07/26 05:38:58;;;;;;;3.42;1.80;;;22.80;84.40;;;;;;10949451;32;20019;-71
2023/07/26 05:45:01;;;;;;;4.25;2.00;;;22.80;84.60;;;;;;10947518;32;20027;-71
2023/07/26 05:51:03;;;;;;;1.77;1.00;;;23.00;84.50;;;;;;10948830;32;20019;-71
2023/07/26 05:57:05;;;;;;;2.30;1.37;;;23.00;84.50;;;;;;10948585;32;20324;-71
2023/07/26 06:03:07;;;;;;;1.10;0.70;;;23.20;84.70;;;;;;10947065;32;20321;-71
2023/07/26 06:09:09;;;;;;;1.83;1.05;;;23.40;84.50;;;;;;10948072;32;20038;-71
2023/07/26 06:15:12;;;;;;;1.15;0.70;;;23.60;84.60;;;;;;10946267;32;20063;-71
2023/07/26 06:21:15;;;;;;;2.10;0.95;;;23.70;84.80;;;;;;10947698;32;20437;-71
2023/07/26 06:27:28;;;;;;;1.87;1.33;;;23.80;84.80;;;;;;10933493;32;20035;-71
2023/07/26 06:33:30;;;;;;;1.92;0.98;;;23.80;84.70;;;;;;10947045;32;20015;-71
2023/07/26 06:39:32;;;;;;;0.55;0.50;;;23.90;84.80;;;;;;10946606;32;20053;-71
2023/07/26 06:45:34;;;;;;;0.45;0.43;;;24.00;85.00;;;;;;10946917;32;20045;-71
2023/07/26 06:51:36;;;;;;;1.75;0.77;;;24.10;85.20;;;;;;10946779;32;20049;-71
2023/07/26 06:57:38;;;;;;;2.62;0.85;;;24.20;85.10;;;;;;10945628;32;20015;-71
2023/07/26 07:03:40;;;;;;;1.42;0.80;;;24.20;85.20;;;;;;10944765;32;20061;-71
2023/07/26 07:09:43;;;;;;;1.73;0.82;;;24.30;85.10;;;;;;10946317;32;20404;-71
2023/07/26 07:15:45;;;;;;;2.65;0.93;;;24.30;85.00;;;;;;10945514;32;20019;-71
2023/07/26 07:21:47;;;;;;;1.20;0.62;;;24.40;84.90;;;;;;10942622;32;20019;-71
2023/07/26 07:27:49;;;;;;;0.90;0.60;;;24.40;84.90;;;;;;10946228;32;20041;-71
2023/07/26 07:33:51;;;;;;;2.20;0.60;;;24.50;84.90;;;;;;10945505;32;20281;-71
2023/07/26 07:39:53;;;;;;;1.25;0.60;;;24.50;84.60;;;;;;10944429;32;20041;-71
2023/07/26 07:45:55;;;;;;;1.65;0.98;;;24.50;84.40;;;;;;10941706;32;20023;-72
2023/07/26 07:51:57;;;;;;;0.43;0.43;;;24.60;84.40;;;;;;10942736;32;20050;-71
2023/07/26 07:58:04;;;;;;;0.77;0.37;;;24.50;83.20;;;;;;10944547;32;20403;-72
2023/07/26 08:04:07;;;;;;;1.55;1.02;;;24.60;83.00;;;;;;10945511;32;20023;-72
2023/07/26 08:10:09;;;;;;;1.52;0.70;;;24.70;82.90;;;;;;10941495;32;20023;-72
2023/07/26 08:16:11;;;;;;;0.70;0.55;;;24.80;82.40;;;;;;10942341;32;20035;-72
2023/07/26 08:22:13;;;;;;;1.77;1.00;;;24.80;82.30;;;;;;10944101;32;20019;-72
2023/07/26 08:28:15;;;;;;;0.77;0.43;;;24.90;82.40;;;;;;10942956;32;20019;-72
2023/07/26 08:34:18;;;;;;;1.48;0.85;;;25.00;82.10;;;;;;10941804;32;20050;-73
2023/07/26 08:40:20;;;;;;;0.95;0.70;;;25.10;81.80;;;;;;10943102;32;20339;-72
2023/07/26 08:46:23;;;;;;;0.62;0.50;;;25.10;81.50;;;;;;10942917;32;20027;-71
2023/07/26 08:52:26;;;;;;;1.17;0.73;;;25.10;81.00;;;;;;10942091;32;20034;-72
2023/07/26 08:58:28;;;;;;;0.65;0.65;;;25.00;80.30;;;;;;10942423;32;20426;-73
2023/07/26 09:04:31;;;;;;;1.05;0.50;;;25.00;79.00;;;;;;10941833;32;20023;-72
2023/07/26 09:10:33;;;;;;;0.90;0.77;;;25.10;79.10;;;;;;10938233;32;20015;-72
2023/07/26 09:16:36;;;;;;;1.12;0.75;;;25.30;79.60;;;;;;10941556;32;20049;-72
2023/07/26 09:22:40;;;;;;;1.87;1.05;;;25.40;79.40;;;;;;10941499;32;20019;-72
2023/07/26 09:28:52;;;;;;;1.35;0.80;;;25.50;78.40;;;;;;10941345;32;20015;-72
2023/07/26 09:34:59;;;;;;;3.10;1.23;;;25.60;78.00;;;;;;10927787;32;20049;-72
2023/07/26 09:41:21;;;;;;;2.30;1.00;;;25.80;77.90;;;;;;10936109;32;20062;-72
2023/07/26 09:47:35;;;;;;;3.20;1.10;;;25.80;77.70;;;;;;10940941;32;20056;-73
2023/07/26 09:53:38;;;;;;;2.22;1.20;;;26.00;77.30;;;;;;10940991;32;20054;-72
2023/07/26 09:59:41;;;;;;;1.48;0.88;;;26.10;76.30;;;;;;10940742;32;20019;-72
2023/07/26 10:05:46;;;;;;;1.67;0.93;;;26.10;75.70;;;;;;10940582;32;20023;-73
2023/07/26 10:11:49;;;;;;;4.57;0.93;;;26.30;75.30;;;;;;10944312;32;20355;-73
2023/07/26 10:17:52;;;;;;;0.65;0.57;;;26.30;74.40;;;;;;10947505;32;20431;-73
2023/07/26 10:24:01;;;;;;;0.62;0.62;;;26.40;74.50;;;;;;10947198;32;20031;-71
2023/07/26 10:30:04;;;;;;;2.08;1.08;;;26.50;73.70;;;;;;10946158;32;20396;-71
2023/07/26 10:36:10;;;;;;;0.98;0.75;;;26.60;73.10;;;;;;10944894;32;20023;-73
2023/07/26 10:42:23;;;;;;;2.50;1.05;;;26.80;73.00;;;;;;10946458;32;20062;-72
2023/07/26 10:48:37;;;;;;;1.00;0.62;;;26.80;72.00;;;;;;10943617;32;20034;-73
2023/07/26 10:54:50;;;;;;;2.58;1.02;;;27.00;72.60;;;;;;10946138;32;20015;-74
2023/07/26 11:01:01;;;;;;;0.65;0.50;;;27.20;73.30;;;;;;10945094;32;20428;-73
2023/07/26 11:07:04;;;;;;;1.77;1.17;;;27.30;72.10;;;;;;10941203;32;20352;-74
2023/07/26 11:13:26;;;;;;;0.88;0.52;;;27.60;70.70;;;;;;10944451;32;20031;-72
2023/07/26 11:19:29;;;;;;;1.55;1.02;;;27.80;70.60;;;;;;10931802;32;20065;-73
2023/07/26 11:25:35;;;;;;;0.82;0.68;;;27.90;69.90;;;;;;10941541;32;20026;-72
2023/07/26 11:31:37;;;;;;;1.20;0.80;;;28.20;69.30;;;;;;10939636;32;20054;-72
2023/07/26 11:37:56;;;;;;;3.33;1.00;;;28.40;68.00;;;;;;10944669;32;20010;-72
2023/07/26 11:43:59;;;;;;;1.95;0.70;;;28.60;67.20;;;;;;10944383;32;20014;-72
2023/07/26 11:50:02;;;;;;;1.20;0.60;;;28.70;67.70;;;;;;10940443;32;20027;-72
2023/07/26 11:56:04;;;;;;;1.92;0.82;;;28.80;66.60;;;;;;10944119;32;20329;-73
2023/07/26 12:02:08;;;;;;;2.08;0.95;;;29.00;66.00;;;;;;10942544;32;20070;-72
2023/07/26 12:08:11;;;;;;;1.48;0.80;;;29.10;65.10;;;;;;10943535;32;20042;-73
2023/07/26 12:14:16;;;;;;;1.85;1.08;;;29.20;66.30;;;;;;10942314;32;20446;-73
2023/07/26 12:20:19;;;;;;;1.48;0.75;;;29.30;65.10;;;;;;10939874;32;20019;-73
2023/07/26 12:26:31;;;;;;;4.03;0.95;;;29.40;64.50;;;;;;10939430;32;20070;-73
2023/07/26 12:32:33;;;;;;;2.85;0.70;;;29.50;62.60;;;;;;10942417;32;20015;-73
2023/07/26 12:38:35;;;;;;;3.55;0.80;;;29.60;62.20;;;;;;10942614;32;20018;-73
2023/07/26 12:44:38;;;;;;;1.65;0.88;;;29.70;62.00;;;;;;10942297;32;20019;-73
2023/07/26 12:50:40;;;;;;;1.02;0.77;;;29.30;64.20;;;;;;10940531;32;20026;-73
2023/07/26 12:56:42;;;;;;;1.90;0.98;;;28.70;64.50;;;;;;10937962;32;20077;-73
2023/07/26 13:02:44;;;;;;;1.73;0.90;;;28.30;65.00;;;;;;10940383;32;20030;-72
2023/07/26 13:08:46;;;;;;;2.65;1.35;;;28.30;63.80;;;;;;10939074;32;20023;-73
2023/07/26 13:14:48;;;;;;;2.33;1.50;;;28.50;63.60;;;;;;10905333;27;20032;-73
2023/07/26 13:20:51;;;;;;;3.25;0.88;;;28.60;63.00;;;;;;10904054;32;20016;-73
2023/07/26 13:26:53;;;;;;;1.70;0.73;;;28.70;61.90;;;;;;10903563;32;20073;-73
2023/07/26 13:32:55;;;;;;;0.90;0.60;;;28.80;61.70;;;;;;10902868;32;20011;-74
2023/07/26 13:38:57;;;;;;;1.87;0.77;;;28.80;60.20;;;;;;10902671;32;20027;-73
2023/07/26 13:45:01;;;;;;;0.98;0.60;;;28.80;60.40;;;;;;10891180;32;20061;-73
2023/07/26 13:51:03;;;;;;;2.55;0.45;;;28.70;59.60;;;;;;10907465;32;20052;-72
2023/07/26 13:57:08;;;;;;;0.43;0.43;;;28.90;59.30;;;;;;10909736;32;20038;-73
2023/07/26 14:03:10;;;;;;;1.27;0.50;;;28.90;59.10;;;;;;10910129;32;20016;-73
2023/07/26 14:09:12;;;;;;;1.17;0.57;;;28.90;58.80;;;;;;10909969;32;20046;-73
2023/07/26 14:15:14;;;;;;;2.00;0.50;;;28.80;59.10;;;;;;10908430;32;20042;-73
2023/07/26 14:21:16;;;;;;;1.35;0.68;;;28.40;59.40;;;;;;10892366;32;20035;-73
2023/07/26 14:27:18;;;;;;;0.50;0.30;;;28.10;59.60;;;;;;10909268;32;20038;-73
2023/07/26 14:33:21;;;;;;;0.68;0.40;;;28.20;59.60;;;;;;10909194;32;20020;-73
2023/07/26 14:39:23;;;;;;;0.57;0.45;;;28.30;59.20;;;;;;10908005;32;20054;-72
2023/07/26 14:45:25;;;;;;;0.98;0.62;;;28.50;59.20;;;;;;10908777;32;20019;-73
2023/07/26 14:51:28;;;;;;;0.55;0.40;;;28.60;58.80;;;;;;10908774;32;20295;-73
2023/07/26 14:57:30;;;;;;;0.93;0.47;;;28.80;58.40;;;;;;10905382;32;20019;-73
2023/07/26 15:03:32;;;;;;;0.37;0.35;;;28.80;58.50;;;;;;10905756;32;20019;-73
2023/07/26 15:09:34;;;;;;;0.73;0.40;;;28.80;58.50;;;;;;10907983;32;20042;-73
2023/07/26 15:15:41;;;;;;;1.62;0.47;;;28.80;59.10;;;;;;10907640;32;20405;-72
2023/07/26 15:21:44;;;;;;;;;;;28.90;58.90;;;;;;10904237;32;20063;-74
2023/07/26 15:27:46;;;;;;;0.80;0.45;;;28.90;58.70;;;;;;10907333;32;19926;-73
2023/07/26 15:33:49;;;;;;;1.65;0.50;;;28.90;58.40;;;;;;10907156;32;20401;-74
2023/07/26 15:39:51;;;;;;;0.65;0.32;;;28.90;58.20;;;;;;10906950;32;20015;-73
2023/07/26 15:45:53;;;;;;;1.55;0.70;;;28.90;59.10;;;;;;10906571;32;20020;-73
2023/07/26 15:51:55;;;;;;;1.30;0.68;;;28.90;59.20;;;;;;10906547;32;20024;-73
2023/07/26 15:57:57;;;;;;;0.95;0.57;;;28.90;59.60;;;;;;10906342;32;20015;-73
2023/07/26 16:04:00;;;;;;;0.47;0.40;;;28.90;61.20;;;;;;10906073;32;20042;-73
2023/07/26 16:10:02;;;;;;;0.45;0.25;;;28.90;61.00;;;;;;10901440;32;20058;-73
2023/07/26 16:16:05;;;;;;;0.47;0.47;;;29.00;60.10;;;;;;10881016;32;20031;-74
2023/07/26 16:22:07;;;;;;;0.80;0.40;;;29.20;59.90;;;;;;10868088;32;20045;-73
2023/07/26 16:28:10;;;;;;;0.85;0.50;;;29.30;60.00;;;;;;10867734;32;20047;-73
2023/07/26 16:34:12;;;;;;;0.57;0.30;;;29.30;60.70;;;;;;10866131;32;20031;-73
2023/07/26 16:40:15;;;;;;;1.40;0.70;;;29.30;61.50;;;;;;10867294;32;20082;-73
2023/07/26 16:46:17;;;;;;;2.03;0.57;;;29.30;61.70;;;;;;10867351;32;20024;-73
2023/07/26 16:52:19;;;;;;;1.00;0.40;;;29.30;61.50;;;;;;10867383;32;20050;-74
2023/07/26 16:58:22;;;;;;;3.62;0.73;;;29.30;60.80;;;;;;10867044;32;20019;-74
2023/07/26 17:04:59;;;;;;;1.58;0.50;;;29.10;61.10;;;;;;10867239;32;20063;-74
2023/07/26 17:11:01;;;;;;;1.30;0.55;;;28.70;64.30;;;;;;10866895;32;20020;-73
2023/07/26 17:17:03;;;;;;;3.58;0.90;;;28.20;66.50;;;;;;10885841;32;20032;-73
2023/07/26 17:23:05;;;;;;;4.80;0.73;;;27.80;68.40;;;;;;10906920;32;20028;-73
2023/07/26 17:29:07;;;;;;;1.70;0.62;;;27.50;69.40;;;;;;10911733;32;20023;-73
2023/07/26 17:35:10;;;;;;;2.22;0.75;;;27.30;70.00;;;;;;10911337;32;20010;-73
2023/07/26 17:41:14;;;;;;;1.40;0.50;;;27.20;70.30;;;;;;10907802;32;20028;-73
2023/07/26 17:47:16;;;;;;;0.68;0.37;;;27.10;70.80;;;;;;10910837;32;20434;-74
2023/07/26 17:53:18;;;;;;;0.45;0.35;;;27.10;71.30;;;;;;10906672;32;20054;-74
2023/07/26 17:59:20;;;;;;;5.68;1.37;;;26.90;72.10;;;;;;10910612;32;20015;-74
2023/07/26 18:05:22;;;;;;;1.55;0.62;;;26.70;72.90;;;;;;10910093;32;20016;-73
2023/07/26 18:11:24;;;;;;;1.25;0.70;;;26.30;73.80;;;;;;10907331;32;20452;-74
2023/07/26 18:17:26;;;;;;;1.48;0.80;;;26.20;74.10;;;;;;10908201;32;20405;-72
2023/07/26 18:23:32;;;;;;;0.62;0.40;;;26.10;74.50;;;;;;10901189;32;20340;-73
2023/07/26 18:29:34;;;;;;;0.80;0.40;;;26.00;75.80;;;;;;10908760;32;20074;-72
2023/07/26 18:35:37;;;;;;;1.87;0.85;;;26.10;76.20;;;;;;10895509;32;20321;-71
2023/07/26 18:41:39;;;;;;;1.40;1.08;;;26.00;76.30;;;;;;10908731;32;20334;-73
2023/07/26 18:47:41;;;;;;;0.57;0.40;;;25.80;76.70;;;;;;10908467;32;20057;-72
2023/07/26 18:53:43;;;;;;;0.30;0.30;;;25.80;77.20;;;;;;10905434;32;20035;-72
2023/07/26 18:59:45;;;;;;;1.48;0.60;;;25.80;77.80;;;;;;10906949;32;20042;-72
2023/07/26 19:05:47;;;;;;;0.40;0.40;;;25.60;76.90;;;;;;10906876;32;20039;-72
2023/07/26 19:11:49;;;;;;;0.32;0.32;;;25.70;77.30;;;;;;10908010;32;20023;-72
2023/07/26 19:17:51;;;;;;;0.22;0.20;;;25.60;77.60;;;;;;10906734;32;20054;-72
2023/07/26 19:23:53;;;;;;;0.73;0.50;;;25.60;77.50;;;;;;10902737;32;20054;-72
2023/07/26 19:29:55;;;;;;;0.50;0.50;;;25.30;76.60;;;;;;10907261;32;20016;-72
2023/07/26 19:35:59;;;;;;;0.30;0.30;;;25.00;76.50;;;;;;10904869;32;20057;-72
2023/07/26 19:42:05;;;;;;;0.30;0.30;;;24.90;77.50;;;;;;10905643;32;20046;-72
2023/07/26 19:48:07;;;;;;;0.65;0.50;;;25.00;78.00;;;;;;10906399;32;20023;-71
2023/07/26 19:54:18;;;;;;;1.23;0.60;;;25.00;77.90;;;;;;10906330;32;20082;-72
2023/07/26 20:00:20;;;;;;;0.22;0.20;;;24.90;77.80;;;;;;10902471;32;20076;-72
2023/07/26 20:06:22;;;;;;;0.57;0.45;;;24.80;78.20;;;;;;10905835;32;20019;-73
2023/07/26 20:12:24;;;;;;;1.85;0.77;;;24.80;78.00;;;;;;10905733;32;20049;-73
2023/07/26 20:18:26;;;;;;;1.40;0.75;;;24.50;77.50;;;;;;10875410;32;20032;-72
2023/07/26 20:24:28;;;;;;;0.88;0.30;;;24.30;77.80;;;;;;10867855;32;20023;-72
2023/07/26 20:30:45;;;;;;;0.43;0.43;;;24.40;78.60;;;;;;10866472;32;20385;-72
2023/07/26 20:36:47;;;;;;;1.00;0.55;;;24.50;77.60;;;;;;10864796;32;20042;-72
2023/07/26 20:42:49;;;;;;;1.23;0.60;;;24.20;78.00;;;;;;10867415;32;20382;-72
2023/07/26 20:48:51;;;;;;;1.02;0.50;;;24.10;78.90;;;;;;10867360;32;20042;-72
2023/07/26 20:54:55;;;;;;;0.40;0.40;;;24.20;79.80;;;;;;10866850;32;20039;-72
2023/07/26 21:00:57;;;;;;;0.98;0.57;;;24.30;79.80;;;;;;10867067;32;20325;-71
2023/07/26 21:06:59;;;;;;;1.55;0.50;;;24.30;79.70;;;;;;10865885;32;20318;-72
2023/07/26 21:13:01;;;;;;;0.40;0.40;;;24.30;80.20;;;;;;10523263;27;11934592;-71
2023/07/26 21:19:03;;;;;;;0.20;0.20;;;24.30;80.50;;;;;;10901484;32;20329;-71
2023/07/26 21:25:06;;;;;;;0.10;0.10;;;24.40;80.10;;;;;;10900892;32;20057;-71
2023/07/26 21:31:10;;;;;;;0.35;0.35;;;24.30;80.40;;;;;;10887983;32;20380;-71
2023/07/26 21:37:12;;;;;;;0.60;0.55;;;24.30;80.90;;;;;;10901272;32;20046;-72
2023/07/26 21:43:14;;;;;;;0.60;0.37;;;24.20;81.50;;;;;;10938531;32;20055;-73
2023/07/26 21:49:18;;;;;;;0.55;0.30;;;24.20;81.70;;;;;;10941163;32;20053;-72
2023/07/26 21:55:20;;;;;;;0.70;0.43;;;24.20;81.40;;;;;;10937252;32;20061;-72
2023/07/26 22:01:22;;;;;;;0.20;0.20;;;24.20;82.00;;;;;;10931690;32;20349;-71
2023/07/26 22:07:24;;;;;;;1.20;0.30;;;24.20;82.00;;;;;;10906941;32;20081;-72
2023/07/26 22:13:28;;;;;;;0.32;0.20;;;24.20;82.00;;;;;;10910040;32;20049;-72
2023/07/26 22:19:30;;;;;;;0.98;0.32;;;24.10;82.30;;;;;;10906527;32;20019;-72
2023/07/26 22:25:32;;;;;;;2.33;0.50;;;24.00;82.40;;;;;;10909535;32;20065;-72
2023/07/26 22:31:34;;;;;;;0.77;0.47;;;24.00;82.50;;;;;;10906258;32;20344;-72
2023/07/26 22:37:36;;;;;;;0.40;0.37;;;24.00;82.60;;;;;;10909346;32;20050;-72
2023/07/26 22:43:38;;;;;;;1.55;0.68;;;23.90;82.40;;;;;;10906135;32;20038;-71
2023/07/26 22:49:51;;;;;;;0.73;0.37;;;23.90;82.40;;;;;;10908750;32;20054;-72
2023/07/26 22:55:53;;;;;;;1.55;0.57;;;23.80;82.50;;;;;;10908596;32;20015;-72
2023/07/26 23:01:55;;;;;;;1.10;0.40;;;23.80;82.40;;;;;;10908317;32;20051;-71
2023/07/26 23:07:57;;;;;;;0.28;0.20;;;23.70;82.60;;;;;;10907261;32;20042;-71
2023/07/26 23:13:59;;;;;;;0.30;0.30;;;23.70;82.60;;;;;;10908124;32;20036;-72
2023/07/26 23:20:01;;;;;;;0.55;0.32;;;23.70;83.00;;;;;;10903549;32;20042;-72
2023/07/26 23:26:03;;;;;;;0.80;0.40;;;23.70;83.20;;;;;;10907489;32;20027;-71
2023/07/26 23:32:05;;;;;;;0.40;0.40;;;23.70;83.10;;;;;;10907163;32;20047;-72
2023/07/26 23:38:07;;;;;;;1.08;0.40;;;23.60;83.30;;;;;;10907199;32;20019;-72
2023/07/26 23:44:09;;;;;;;0.68;0.40;;;23.60;83.20;;;;;;10905286;32;20015;-72
2023/07/26 23:50:11;;;;;;;0.52;0.47;;;23.50;82.90;;;;;;10906829;32;20015;-72
2023/07/26 23:56:13;;;;;;;0.10;0.10;;;23.50;82.70;;;;;;10906518;32;20050;-72
